Time;durP1;ratioP1;P1;durP2;ratioP2;P2;SDS_P1;SDS_P2;PMS_P1;PMS_P2;Temp;Humidity;BMP_temperature;BMP_pressure;BME280_temperature;BME280_humidity;BME280_pressure;Samples;Min_cycle;Max_cycle;Signal;HPM_P1;HPM_P2
2022/09/19 00:02:08;;;;;;;1.98;0.90;;;;;;;;;;4974985;28;20038;-85
2022/09/19 00:04:33;;;;;;;2.30;0.90;;;;;;;;;;4974996;28;20034;-85
2022/09/19 00:06:59;;;;;;;3.22;0.80;;;;;;;;;;4969759;28;20034;-85
2022/09/19 00:09:27;;;;;;;2.13;0.82;;;;;;;;;;4969503;28;20030;-84
2022/09/19 00:11:53;;;;;;;3.67;1.10;;;;;;;;;;4972391;28;20463;-84
2022/09/19 00:14:23;;;;;;;1.15;0.57;;;;;;;;;;4974301;28;20473;-85
2022/09/19 00:16:49;;;;;;;3.10;1.08;;;;;;;;;;4989311;28;20378;-85
2022/09/19 00:19:19;;;;;;;2.30;0.80;;;;;;;;;;4972878;28;20053;-85
2022/09/19 00:21:46;;;;;;;3.03;1.00;;;;;;;;;;4975630;28;21084;-85
2022/09/19 00:26:58;;;;;;;3.22;0.85;;;;;;;;;;4992467;28;20065;-85
2022/09/19 00:29:24;;;;;;;2.58;0.93;;;;;;;;;;4977133;28;20053;-85
2022/09/19 00:31:51;;;;;;;1.50;0.68;;;;;;;;;;4986916;28;20029;-84
2022/09/19 00:34:17;;;;;;;4.15;0.90;;;;;;;;;;4988497;28;20421;-85
2022/09/19 00:36:43;;;;;;;3.15;1.00;;;;;;;;;;4964580;28;20030;-85
2022/09/19 00:39:10;;;;;;;2.95;0.90;;;;;;;;;;4982642;28;20054;-85
2022/09/19 00:41:36;;;;;;;1.90;0.70;;;;;;;;;;4971401;28;20095;-85
2022/09/19 00:44:03;;;;;;;2.42;0.80;;;;;;;;;;4987709;28;20030;-85
2022/09/19 00:46:31;;;;;;;3.07;0.87;;;;;;;;;;4971200;28;20441;-86
2022/09/19 00:49:01;;;;;;;3.78;1.30;;;;;;;;;;4986110;28;20397;-85
2022/09/19 00:51:32;;;;;;;4.03;1.20;;;;;;;;;;4991179;28;20069;-85
2022/09/19 00:54:11;;;;;;;4.22;1.33;;;;;;;;;;4991596;28;20038;-85
2022/09/19 00:56:40;;;;;;;3.38;1.45;;;;;;;;;;4986912;28;20038;-85
2022/09/19 00:59:05;;;;;;;2.97;1.33;;;;;;;;;;4986466;28;20055;-85
2022/09/19 01:01:31;;;;;;;4.18;1.60;;;;;;;;;;4971849;28;20105;-85
2022/09/19 01:03:56;;;;;;;5.03;1.58;;;;;;;;;;4978945;28;20437;-85
2022/09/19 01:06:52;;;;;;;4.55;1.60;;;;;;;;;;4968567;28;20052;-85
2022/09/19 01:09:25;;;;;;;3.40;1.30;;;;;;;;;;4991894;28;20034;-85
2022/09/19 01:12:01;;;;;;;3.50;1.48;;;;;;;;;;4972039;28;20052;-85
2022/09/19 01:14:54;;;;;;;4.20;1.67;;;;;;;;;;4978323;28;20038;-85
2022/09/19 01:17:32;;;;;;;3.42;1.52;;;;;;;;;;4986497;28;20034;-85
2022/09/19 01:19:58;;;;;;;2.90;1.40;;;;;;;;;;4963333;28;20045;-85
2022/09/19 01:22:31;;;;;;;4.20;1.95;;;;;;;;;;4988432;28;20030;-85
2022/09/19 01:25:22;;;;;;;4.60;1.85;;;;;;;;;;4970965;28;20499;-85
2022/09/19 01:27:51;;;;;;;5.28;2.08;;;;;;;;;;4985813;28;20037;-85
2022/09/19 01:30:16;;;;;;;3.58;1.70;;;;;;;;;;4983954;28;20037;-85
2022/09/19 01:32:51;;;;;;;4.35;2.00;;;;;;;;;;4988170;28;20095;-85
2022/09/19 01:35:19;;;;;;;4.03;1.75;;;;;;;;;;4972192;28;20030;-85
2022/09/19 01:37:48;;;;;;;3.17;1.60;;;;;;;;;;4974852;28;20045;-84
2022/09/19 01:40:16;;;;;;;3.70;1.60;;;;;;;;;;4988641;28;20031;-85
2022/09/19 01:42:48;;;;;;;;;;;;;;;;;;4972030;28;20034;-85
2022/09/19 01:45:13;;;;;;;3.00;1.50;;;;;;;;;;4987829;28;19913;-85
2022/09/19 01:47:48;;;;;;;4.20;1.70;;;;;;;;;;4973281;28;20511;-85
2022/09/19 01:50:34;;;;;;;4.45;1.70;;;;;;;;;;5005317;28;20091;-85
2022/09/19 01:53:11;;;;;;;3.43;1.83;;;;;;;;;;4975845;28;20037;-85
2022/09/19 01:55:47;;;;;;;4.20;1.52;;;;;;;;;;4972929;28;20030;-85
2022/09/19 01:58:31;;;;;;;5.45;1.55;;;;;;;;;;4972241;28;20038;-85
2022/09/19 02:01:05;;;;;;;5.53;1.60;;;;;;;;;;5004382;28;20437;-84
2022/09/19 02:03:48;;;;;;;3.75;1.63;;;;;;;;;;4975389;28;20065;-85
2022/09/19 02:06:20;;;;;;;4.55;1.80;;;;;;;;;;4988020;28;20091;-85
2022/09/19 02:08:53;;;;;;;5.20;2.15;;;;;;;;;;4976373;28;20029;-85
2022/09/19 02:11:21;;;;;;;4.63;1.52;;;;;;;;;;4968899;28;20041;-84
2022/09/19 02:14:10;;;;;;;5.47;1.70;;;;;;;;;;4980340;28;20030;-85
2022/09/19 02:16:47;;;;;;;3.05;1.58;;;;;;;;;;4979908;28;20041;-85
2022/09/19 02:19:32;;;;;;;3.45;1.80;;;;;;;;;;4989187;28;20104;-84
2022/09/19 02:22:02;;;;;;;3.63;1.73;;;;;;;;;;4976974;28;20560;-86
2022/09/19 02:24:30;;;;;;;4.03;2.00;;;;;;;;;;4977646;28;20034;-84
2022/09/19 02:27:07;;;;;;;3.50;1.73;;;;;;;;;;4989354;28;20034;-85
2022/09/19 02:29:35;;;;;;;4.22;1.83;;;;;;;;;;4973989;28;20493;-85
2022/09/19 02:32:00;;;;;;;;;;;;;;;;;;4988955;28;20092;-85
2022/09/19 02:34:26;;;;;;;4.47;2.10;;;;;;;;;;4980171;28;19917;-84
2022/09/19 02:37:30;;;;;;;3.45;1.90;;;;;;;;;;4989216;28;20034;-85
2022/09/19 02:40:09;;;;;;;3.03;1.60;;;;;;;;;;4996913;28;20042;-84
2022/09/19 02:42:46;;;;;;;4.32;2.22;;;;;;;;;;4992810;28;20037;-85
2022/09/19 02:45:32;;;;;;;6.88;2.50;;;;;;;;;;4993920;28;20038;-85
2022/09/19 02:48:16;;;;;;;5.18;1.92;;;;;;;;;;4993860;28;20084;-84
2022/09/19 02:51:03;;;;;;;3.78;2.05;;;;;;;;;;4989624;28;20128;-85
2022/09/19 02:53:33;;;;;;;5.88;2.35;;;;;;;;;;4990492;28;20478;-85
2022/09/19 02:56:01;;;;;;;4.45;2.28;;;;;;;;;;4988277;28;20153;-84
2022/09/19 02:58:36;;;;;;;4.20;2.20;;;;;;;;;;4992069;28;20042;-85
2022/09/19 03:01:09;;;;;;;5.25;2.20;;;;;;;;;;4989042;28;20041;-85
2022/09/19 03:06:28;;;;;;;3.67;1.80;;;;;;;;;;4992177;28;20044;-85
2022/09/19 03:08:55;;;;;;;5.07;2.30;;;;;;;;;;4971741;28;20491;-85
2022/09/19 03:11:25;;;;;;;4.63;2.33;;;;;;;;;;4972597;28;20038;-85
2022/09/19 03:13:52;;;;;;;4.55;2.10;;;;;;;;;;4975701;28;20045;-85
2022/09/19 03:16:24;;;;;;;5.00;2.03;;;;;;;;;;4990326;28;20121;-86
2022/09/19 03:18:54;;;;;;;4.68;2.10;;;;;;;;;;4989136;28;20034;-85
2022/09/19 03:21:21;;;;;;;4.90;2.10;;;;;;;;;;4988656;28;20113;-85
2022/09/19 03:23:49;;;;;;;6.32;2.28;;;;;;;;;;4981025;28;20030;-85
2022/09/19 03:26:20;;;;;;;5.13;2.00;;;;;;;;;;4974392;28;20304;-85
2022/09/19 03:28:45;;;;;;;4.07;2.25;;;;;;;;;;4992057;28;20493;-85
2022/09/19 03:31:11;;;;;;;5.70;2.10;;;;;;;;;;4988292;28;20255;-85
2022/09/19 03:33:36;;;;;;;4.78;2.17;;;;;;;;;;4990048;28;20042;-85
2022/09/19 03:36:07;;;;;;;4.78;1.98;;;;;;;;;;4975672;28;20042;-85
2022/09/19 03:38:35;;;;;;;4.20;2.42;;;;;;;;;;4984816;28;20482;-85
2022/09/19 03:41:00;;;;;;;5.50;2.60;;;;;;;;;;4970087;28;20034;-85
2022/09/19 03:43:27;;;;;;;5.82;2.30;;;;;;;;;;4986953;28;20061;-85
2022/09/19 03:45:52;;;;;;;5.38;2.55;;;;;;;;;;4974263;28;20037;-85
2022/09/19 03:48:18;;;;;;;5.40;2.42;;;;;;;;;;4973226;28;20685;-85
2022/09/19 03:50:44;;;;;;;4.95;2.67;;;;;;;;;;4987182;28;20114;-85
2022/09/19 03:53:09;;;;;;;5.15;2.28;;;;;;;;;;4972951;28;20185;-85
2022/09/19 03:55:37;;;;;;;4.15;2.28;;;;;;;;;;4986539;28;20155;-84
2022/09/19 03:58:04;;;;;;;5.35;2.55;;;;;;;;;;4972928;28;20054;-85
2022/09/19 04:00:30;;;;;;;5.22;2.90;;;;;;;;;;4973843;28;20061;-85
2022/09/19 04:02:56;;;;;;;4.03;2.42;;;;;;;;;;4973094;28;20037;-83
2022/09/19 04:05:21;;;;;;;4.85;2.88;;;;;;;;;;4987196;28;20111;-83
2022/09/19 04:07:47;;;;;;;6.05;2.78;;;;;;;;;;4964633;28;20030;-83
2022/09/19 04:10:13;;;;;;;5.95;2.70;;;;;;;;;;4967730;28;20081;-83
2022/09/19 04:12:39;;;;;;;4.75;2.58;;;;;;;;;;4989781;28;20068;-82
2022/09/19 04:15:05;;;;;;;4.95;2.33;;;;;;;;;;4980296;28;20041;-83
2022/09/19 04:17:32;;;;;;;4.20;2.60;;;;;;;;;;4975828;28;20072;-82
2022/09/19 04:19:57;;;;;;;6.07;2.90;;;;;;;;;;4988636;28;20044;-82
2022/09/19 04:22:22;;;;;;;4.20;2.53;;;;;;;;;;4973653;28;20034;-81
2022/09/19 04:24:48;;;;;;;5.72;3.25;;;;;;;;;;4989336;28;20034;-81
2022/09/19 04:27:13;;;;;;;5.72;2.63;;;;;;;;;;4989961;28;20110;-82
2022/09/19 04:29:40;;;;;;;5.78;3.05;;;;;;;;;;4962962;28;20105;-81
2022/09/19 04:32:06;;;;;;;5.65;2.85;;;;;;;;;;4986560;28;20049;-81
2022/09/19 04:34:32;;;;;;;4.93;2.83;;;;;;;;;;4983122;28;20560;-83
2022/09/19 04:36:58;;;;;;;5.07;2.97;;;;;;;;;;4972067;28;20037;-81
2022/09/19 04:39:24;;;;;;;6.85;3.30;;;;;;;;;;4971854;28;20069;-81
2022/09/19 04:41:52;;;;;;;5.15;2.90;;;;;;;;;;4969156;28;20541;-82
2022/09/19 04:44:28;;;;;;;6.90;3.10;;;;;;;;;;4968021;28;20045;-81
2022/09/19 04:46:54;;;;;;;6.95;3.20;;;;;;;;;;4985774;28;20034;-82
2022/09/19 04:49:19;;;;;;;5.95;3.65;;;;;;;;;;4970976;28;20044;-82
2022/09/19 04:51:45;;;;;;;6.88;3.53;;;;;;;;;;4985153;28;20072;-81
2022/09/19 04:54:11;;;;;;;5.32;2.90;;;;;;;;;;4988218;28;20064;-81
2022/09/19 04:56:36;;;;;;;6.30;3.30;;;;;;;;;;4964414;28;20443;-82
2022/09/19 04:59:03;;;;;;;6.43;3.10;;;;;;;;;;4970754;28;20080;-81
2022/09/19 05:01:30;;;;;;;6.57;3.15;;;;;;;;;;4976965;28;20034;-80
2022/09/19 05:03:59;;;;;;;5.07;3.15;;;;;;;;;;4970173;28;20057;-80
2022/09/19 05:06:28;;;;;;;5.05;2.88;;;;;;;;;;4986053;28;20128;-80
2022/09/19 05:08:54;;;;;;;7.80;3.65;;;;;;;;;;4987473;28;20049;-81
2022/09/19 05:11:21;;;;;;;6.78;3.33;;;;;;;;;;4969444;28;20069;-81
2022/09/19 05:13:48;;;;;;;5.22;3.20;;;;;;;;;;4971096;28;20037;-80
2022/09/19 05:16:13;;;;;;;5.63;3.13;;;;;;;;;;4971656;28;20088;-81
2022/09/19 05:18:39;;;;;;;6.00;3.05;;;;;;;;;;4978645;28;20534;-81
2022/09/19 05:21:07;;;;;;;6.00;3.42;;;;;;;;;;4972219;28;20068;-80
2022/09/19 05:23:33;;;;;;;6.57;3.13;;;;;;;;;;4990768;28;20867;-80
2022/09/19 05:26:15;;;;;;;6.05;3.42;;;;;;;;;;4988536;28;20072;-81
2022/09/19 05:28:40;;;;;;;5.75;3.17;;;;;;;;;;4976983;28;20061;-80
2022/09/19 05:31:06;;;;;;;6.65;3.00;;;;;;;;;;4984960;28;20061;-81
2022/09/19 05:33:32;;;;;;;4.85;2.88;;;;;;;;;;4991886;28;20136;-81
2022/09/19 05:36:00;;;;;;;4.90;2.67;;;;;;;;;;4990133;28;20034;-81
2022/09/19 05:38:26;;;;;;;4.68;3.08;;;;;;;;;;4971646;28;20092;-80
2022/09/19 05:40:55;;;;;;;6.78;3.50;;;;;;;;;;4983062;28;20048;-80
2022/09/19 05:43:21;;;;;;;6.43;3.63;;;;;;;;;;4974974;28;20522;-81
2022/09/19 05:45:47;;;;;;;5.90;3.58;;;;;;;;;;4994161;28;20493;-81
2022/09/19 05:48:13;;;;;;;6.80;3.67;;;;;;;;;;4989968;28;20026;-81
2022/09/19 05:50:38;;;;;;;6.07;3.55;;;;;;;;;;5009641;28;20385;-80
2022/09/19 05:55:47;;;;;;;4.93;2.78;;;;;;;;;;4991493;28;20041;-81
2022/09/19 05:58:17;;;;;;;4.57;2.30;;;;;;;;;;4992165;28;20444;-80
2022/09/19 06:00:42;;;;;;;5.35;2.30;;;;;;;;;;4980581;28;20034;-80
2022/09/19 06:03:10;;;;;;;4.28;2.22;;;;;;;;;;4972919;28;20042;-80
2022/09/19 06:05:40;;;;;;;3.70;2.15;;;;;;;;;;4965110;28;20049;-80
2022/09/19 06:08:07;;;;;;;5.28;2.22;;;;;;;;;;4973832;28;20162;-81
2022/09/19 06:10:35;;;;;;;9.70;2.33;;;;;;;;;;4955189;28;20030;-81
2022/09/19 06:13:03;;;;;;;4.45;1.98;;;;;;;;;;4971317;28;20085;-81
2022/09/19 06:15:28;;;;;;;3.88;1.98;;;;;;;;;;4971741;28;20537;-80
2022/09/19 06:17:55;;;;;;;3.88;1.80;;;;;;;;;;4974395;28;20042;-81
2022/09/19 06:20:20;;;;;;;4.30;1.92;;;;;;;;;;4972042;28;20038;-80
2022/09/19 06:22:46;;;;;;;3.45;1.80;;;;;;;;;;4956906;28;20026;-80
2022/09/19 06:25:13;;;;;;;3.50;1.80;;;;;;;;;;4953967;28;20077;-80
2022/09/19 06:27:39;;;;;;;3.15;1.60;;;;;;;;;;4970235;28;20549;-80
2022/09/19 06:30:05;;;;;;;3.90;1.63;;;;;;;;;;4970618;28;20100;-80
2022/09/19 06:32:31;;;;;;;2.67;1.30;;;;;;;;;;4971973;28;20038;-81
2022/09/19 06:34:56;;;;;;;3.50;1.70;;;;;;;;;;4970064;28;20681;-80
2022/09/19 06:37:21;;;;;;;6.53;2.22;;;;;;;;;;4972753;28;20042;-81
2022/09/19 06:39:47;;;;;;;3.28;1.77;;;;;;;;;;4957622;28;20125;-80
2022/09/19 06:42:13;;;;;;;2.92;1.63;;;;;;;;;;4970092;28;20580;-80
2022/09/19 06:44:39;;;;;;;4.03;1.80;;;;;;;;;;4954079;28;20518;-80
2022/09/19 06:47:05;;;;;;;3.60;1.90;;;;;;;;;;4955495;28;20049;-80
2022/09/19 06:49:30;;;;;;;2.95;1.50;;;;;;;;;;4973628;28;20073;-81
2022/09/19 06:51:57;;;;;;;3.53;1.83;;;;;;;;;;4973177;28;20553;-79
2022/09/19 06:54:23;;;;;;;3.58;1.38;;;;;;;;;;4969843;28;20038;-80
2022/09/19 06:56:49;;;;;;;3.55;1.38;;;;;;;;;;4955719;28;20410;-81
2022/09/19 06:59:18;;;;;;;3.15;1.58;;;;;;;;;;4973589;28;20038;-81
2022/09/19 07:01:45;;;;;;;2.92;1.50;;;;;;;;;;4969279;28;20030;-80
2022/09/19 07:04:10;;;;;;;4.00;1.50;;;;;;;;;;4974444;28;20066;-81
2022/09/19 07:06:37;;;;;;;2.67;1.40;;;;;;;;;;4955811;28;21102;-83
2022/09/19 07:09:07;;;;;;;3.50;1.67;;;;;;;;;;4952758;28;20394;-81
2022/09/19 07:11:56;;;;;;;2.20;1.20;;;;;;;;;;4971268;28;20030;-81
2022/09/19 07:14:22;;;;;;;1.80;0.93;;;;;;;;;;4972757;28;20045;-81
2022/09/19 07:16:48;;;;;;;3.90;1.30;;;;;;;;;;4989303;28;20077;-81
2022/09/19 07:19:13;;;;;;;3.10;1.20;;;;;;;;;;4991293;28;20409;-81
2022/09/19 07:21:38;;;;;;;3.40;1.30;;;;;;;;;;4973640;28;20090;-82
2022/09/19 07:24:04;;;;;;;4.97;1.52;;;;;;;;;;4980908;28;20085;-81
2022/09/19 07:26:30;;;;;;;3.47;1.42;;;;;;;;;;4972538;28;20096;-80
2022/09/19 07:28:55;;;;;;;2.03;1.10;;;;;;;;;;4977347;28;20046;-80
2022/09/19 07:31:20;;;;;;;2.22;1.15;;;;;;;;;;4987960;28;20696;-81
2022/09/19 07:33:47;;;;;;;2.63;1.33;;;;;;;;;;4965690;28;20041;-80
2022/09/19 07:36:12;;;;;;;4.18;1.30;;;;;;;;;;4987890;28;20405;-81
2022/09/19 07:38:38;;;;;;;3.28;1.25;;;;;;;;;;5004601;28;20041;-81
2022/09/19 07:41:03;;;;;;;2.15;1.00;;;;;;;;;;4987847;28;20577;-80
2022/09/19 07:43:32;;;;;;;2.58;1.20;;;;;;;;;;4980378;28;20417;-80
2022/09/19 07:45:57;;;;;;;3.28;1.15;;;;;;;;;;5005652;28;20050;-80
2022/09/19 07:48:22;;;;;;;2.83;1.35;;;;;;;;;;4977609;28;20441;-81
2022/09/19 07:50:50;;;;;;;1.95;1.02;;;;;;;;;;5003060;28;20152;-81
2022/09/19 07:53:18;;;;;;;2.13;1.10;;;;;;;;;;4973761;28;20034;-80
2022/09/19 07:55:51;;;;;;;1.92;0.90;;;;;;;;;;4971318;28;20030;-81
2022/09/19 07:58:17;;;;;;;2.85;1.30;;;;;;;;;;4969372;28;20504;-80
2022/09/19 08:00:45;;;;;;;2.65;1.15;;;;;;;;;;4988786;28;20037;-81
2022/09/19 08:03:12;;;;;;;2.30;0.95;;;;;;;;;;4966750;28;20038;-81
2022/09/19 08:05:42;;;;;;;2.50;1.00;;;;;;;;;;4963091;28;20053;-81
2022/09/19 08:08:10;;;;;;;1.80;0.90;;;;;;;;;;4980040;28;20540;-81
2022/09/19 08:10:36;;;;;;;1.90;0.80;;;;;;;;;;4977172;28;20056;-81
2022/09/19 08:13:03;;;;;;;1.50;0.73;;;;;;;;;;4978144;28;20042;-80
2022/09/19 08:15:29;;;;;;;2.10;1.05;;;;;;;;;;4985646;28;20041;-80
2022/09/19 08:17:59;;;;;;;2.20;1.00;;;;;;;;;;4983355;28;20072;-80
2022/09/19 08:20:30;;;;;;;2.63;0.90;;;;;;;;;;4994225;28;20025;-80
2022/09/19 08:23:00;;;;;;;3.17;0.90;;;;;;;;;;4970871;28;20444;-81
2022/09/19 08:25:28;;;;;;;2.30;0.98;;;;;;;;;;4963980;28;20038;-81
2022/09/19 08:27:56;;;;;;;3.58;0.90;;;;;;;;;;4980640;28;20034;-82
2022/09/19 08:30:22;;;;;;;;;;;;;;;;;;4961282;28;20042;-81
2022/09/19 08:32:51;;;;;;;2.10;0.88;;;;;;;;;;4978414;28;19964;-81
2022/09/19 08:35:17;;;;;;;1.77;0.90;;;;;;;;;;4991807;28;20034;-80
2022/09/19 08:37:46;;;;;;;2.65;0.80;;;;;;;;;;4985351;28;20037;-81
2022/09/19 08:40:28;;;;;;;1.90;0.75;;;;;;;;;;4988853;28;20359;-82
2022/09/19 08:43:12;;;;;;;1.60;0.82;;;;;;;;;;4985093;28;20037;-81
2022/09/19 08:46:07;;;;;;;2.03;0.80;;;;;;;;;;4975971;28;20477;-81
2022/09/19 08:48:45;;;;;;;2.08;0.60;;;;;;;;;;4974014;28;20030;-80
2022/09/19 08:51:43;;;;;;;2.65;0.88;;;;;;;;;;4984996;28;20171;-80
2022/09/19 08:54:11;;;;;;;1.98;0.85;;;;;;;;;;4989856;28;20100;-81
2022/09/19 08:56:37;;;;;;;1.15;0.68;;;;;;;;;;4986420;28;20814;-82
2022/09/19 08:59:08;;;;;;;3.80;1.45;;;;;;;;;;4992431;28;20042;-82
2022/09/19 09:01:35;;;;;;;1.83;0.80;;;;;;;;;;4970446;28;20026;-81
2022/09/19 09:04:07;;;;;;;;;;;;;;;;;;4986710;28;20450;-83
2022/09/19 09:07:06;;;;;;;3.08;0.80;;;;;;;;;;5005960;28;19967;-82
2022/09/19 09:10:05;;;;;;;2.13;0.52;;;;;;;;;;5006270;28;20049;-82
2022/09/19 09:12:40;;;;;;;1.50;0.55;;;;;;;;;;4990246;28;20100;-82
2022/09/19 09:15:28;;;;;;;1.50;0.70;;;;;;;;;;4995865;28;20049;-82
2022/09/19 09:18:11;;;;;;;;;;;;;;;;;;4990900;28;20461;-82
2022/09/19 09:20:45;;;;;;;1.25;0.50;;;;;;;;;;4988975;28;19917;-81
2022/09/19 09:23:33;;;;;;;1.17;0.40;;;;;;;;;;4998055;28;20556;-81
2022/09/19 09:26:02;;;;;;;1.83;0.40;;;;;;;;;;4990293;28;20125;-81
2022/09/19 09:28:49;;;;;;;1.70;0.40;;;;;;;;;;4993304;28;20034;-82
2022/09/19 09:31:35;;;;;;;1.30;0.40;;;;;;;;;;4975239;28;20038;-80
2022/09/19 09:34:06;;;;;;;1.02;0.40;;;;;;;;;;5007650;28;20041;-80
2022/09/19 09:36:39;;;;;;;1.23;0.40;;;;;;;;;;4974320;28;20041;-81
2022/09/19 09:39:26;;;;;;;0.70;0.40;;;;;;;;;;4978984;28;20200;-80
2022/09/19 09:41:54;;;;;;;;;;;;;;;;;;4981635;28;20034;-81
2022/09/19 09:44:44;;;;;;;1.75;0.32;;;;;;;;;;4977953;28;19932;-80
2022/09/19 09:47:21;;;;;;;1.15;0.43;;;;;;;;;;4993181;28;20052;-83
2022/09/19 09:49:49;;;;;;;0.70;0.38;;;;;;;;;;5009929;28;20493;-81
2022/09/19 09:52:35;;;;;;;1.15;0.40;;;;;;;;;;4988256;28;20120;-80
2022/09/19 09:58:19;;;;;;;7.30;0.95;;;;;;;;;;5008321;28;20068;-82
2022/09/19 10:03:36;;;;;;;1.20;0.30;;;;;;;;;;4996153;28;20037;-80
2022/09/19 10:06:25;;;;;;;1.67;0.40;;;;;;;;;;4972625;28;20560;-81
2022/09/19 10:09:05;;;;;;;1.48;0.30;;;;;;;;;;4990073;28;20092;-81
2022/09/19 10:11:42;;;;;;;0.82;0.30;;;;;;;;;;5006692;28;20033;-80
2022/09/19 10:14:18;;;;;;;1.13;0.60;;;;;;;;;;4991977;28;20037;-80
2022/09/19 10:16:46;;;;;;;2.30;0.40;;;;;;;;;;4991044;28;20403;-81
2022/09/19 10:19:25;;;;;;;1.15;0.40;;;;;;;;;;4991343;28;20041;-80
2022/09/19 10:21:54;;;;;;;1.77;0.32;;;;;;;;;;5007344;28;20060;-79
2022/09/19 10:24:45;;;;;;;2.08;0.40;;;;;;;;;;4980959;28;20076;-81
2022/09/19 10:27:25;;;;;;;0.90;0.40;;;;;;;;;;5007008;28;20038;-80
2022/09/19 10:30:11;;;;;;;0.68;0.22;;;;;;;;;;5007490;28;20034;-79
2022/09/19 10:32:39;;;;;;;0.30;0.08;;;;;;;;;;4988291;28;20511;-81
2022/09/19 10:35:26;;;;;;;1.50;0.30;;;;;;;;;;4991310;28;20104;-78
2022/09/19 10:38:13;;;;;;;0.70;0.20;;;;;;;;;;4993696;28;20096;-78
2022/09/19 10:40:51;;;;;;;0.35;0.15;;;;;;;;;;4970660;28;20127;-78
2022/09/19 10:43:22;;;;;;;0.10;0.10;;;;;;;;;;4993570;28;20031;-80
2022/09/19 10:45:47;;;;;;;0.10;0.10;;;;;;;;;;4988785;28;20038;-80
2022/09/19 10:48:29;;;;;;;0.52;0.20;;;;;;;;;;4976154;28;20077;-80
2022/09/19 10:50:55;;;;;;;0.20;0.20;;;;;;;;;;4973277;28;20026;-80
2022/09/19 10:53:26;;;;;;;0.20;0.17;;;;;;;;;;4991707;28;20038;-80
2022/09/19 10:55:56;;;;;;;0.32;0.17;;;;;;;;;;4968206;28;20061;-80
2022/09/19 10:58:26;;;;;;;0.52;0.20;;;;;;;;;;4990837;28;20489;-80
2022/09/19 11:01:04;;;;;;;0.55;0.20;;;;;;;;;;4974899;28;20037;-81
2022/09/19 11:03:30;;;;;;;;;;;;;;;;;;4991267;28;20467;-79
2022/09/19 11:06:15;;;;;;;1.23;0.10;;;;;;;;;;5005195;28;20024;-80
2022/09/19 11:08:51;;;;;;;0.40;0.15;;;;;;;;;;4978938;28;20103;-80
2022/09/19 11:11:37;;;;;;;0.20;0.10;;;;;;;;;;4966973;28;20280;-80
2022/09/19 11:14:19;;;;;;;0.40;0.20;;;;;;;;;;4980672;28;20038;-80
2022/09/19 11:17:31;;;;;;;0.40;0.10;;;;;;;;;;5005852;28;20113;-80
2022/09/19 11:20:16;;;;;;;0.85;0.32;;;;;;;;;;4928191;29;20049;-81
2022/09/19 11:22:53;;;;;;;1.05;0.20;;;;;;;;;;4929404;29;20638;-82
2022/09/19 11:25:30;;;;;;;;;;;;;;;;;;4931035;29;20146;-80
2022/09/19 11:28:09;;;;;;;0.45;0.20;;;;;;;;;;4931527;28;19949;-80
2022/09/19 11:30:47;;;;;;;0.60;0.20;;;;;;;;;;4913414;29;20171;-80
2022/09/19 11:33:24;;;;;;;0.60;0.10;;;;;;;;;;4945798;28;20130;-80
2022/09/19 11:35:58;;;;;;;0.38;0.10;;;;;;;;;;4912480;28;20049;-81
2022/09/19 11:38:38;;;;;;;2.72;0.43;;;;;;;;;;4944287;28;20082;-82
2022/09/19 11:41:16;;;;;;;0.40;0.17;;;;;;;;;;4929268;29;20050;-81
2022/09/19 11:44:09;;;;;;;0.50;0.20;;;;;;;;;;4928807;28;20165;-80
2022/09/19 11:46:55;;;;;;;0.57;0.20;;;;;;;;;;4929423;28;20046;-80
2022/09/19 11:49:31;;;;;;;0.75;0.30;;;;;;;;;;4932768;29;20078;-81
2022/09/19 11:52:01;;;;;;;0.88;0.32;;;;;;;;;;5003633;28;20049;-81
2022/09/19 11:54:29;;;;;;;0.40;0.20;;;;;;;;;;5001945;28;20034;-82
2022/09/19 11:57:00;;;;;;;0.70;0.30;;;;;;;;;;4989952;28;20064;-81
2022/09/19 11:59:42;;;;;;;0.95;0.20;;;;;;;;;;4977469;28;20041;-80
2022/09/19 12:02:48;;;;;;;3.83;0.30;;;;;;;;;;4992716;28;20544;-81
2022/09/19 12:05:34;;;;;;;0.52;0.20;;;;;;;;;;5002003;28;20125;-80
2022/09/19 12:08:02;;;;;;;0.65;0.20;;;;;;;;;;4993238;28;20041;-80
2022/09/19 12:10:35;;;;;;;6.65;0.70;;;;;;;;;;4986488;28;20495;-81
2022/09/19 12:13:07;;;;;;;0.40;0.15;;;;;;;;;;4972186;28;20030;-80
2022/09/19 12:15:36;;;;;;;1.77;0.75;;;;;;;;;;4965493;28;21147;-81
2022/09/19 12:18:11;;;;;;;2.25;0.85;;;;;;;;;;4971665;28;20084;-82
2022/09/19 12:20:42;;;;;;;2.53;0.88;;;;;;;;;;4966171;28;20044;-80
2022/09/19 12:26:08;;;;;;;0.73;0.10;;;;;;;;;;4981857;28;20056;-80
2022/09/19 12:28:37;;;;;;;0.52;0.20;;;;;;;;;;4986967;28;20450;-80
2022/09/19 12:31:06;;;;;;;2.35;0.30;;;;;;;;;;4987315;28;20038;-85
2022/09/19 12:33:47;;;;;;;1.30;0.30;;;;;;;;;;4970769;28;20038;-83
2022/09/19 12:36:30;;;;;;;1.65;0.20;;;;;;;;;;4971420;28;20125;-82
2022/09/19 12:39:01;;;;;;;1.60;0.22;;;;;;;;;;4971950;28;20603;-83
2022/09/19 12:41:48;;;;;;;0.73;0.22;;;;;;;;;;4963550;28;20174;-86
2022/09/19 12:44:23;;;;;;;0.45;0.20;;;;;;;;;;4971376;28;20041;-84
2022/09/19 12:47:04;;;;;;;0.70;0.20;;;;;;;;;;4971937;28;20048;-85
2022/09/19 12:49:58;;;;;;;0.45;0.25;;;;;;;;;;4989169;28;20035;-81
2022/09/19 12:53:04;;;;;;;0.70;0.25;;;;;;;;;;4958057;28;20524;-83
2022/09/19 12:55:38;;;;;;;0.85;0.20;;;;;;;;;;4984333;28;20034;-81
2022/09/19 12:58:20;;;;;;;6.90;1.45;;;;;;;;;;4988419;28;20057;-81
2022/09/19 13:00:46;;;;;;;0.50;0.20;;;;;;;;;;4971981;28;20583;-81
2022/09/19 13:03:16;;;;;;;0.50;0.20;;;;;;;;;;4974717;28;20046;-82
2022/09/19 13:05:49;;;;;;;0.73;0.20;;;;;;;;;;4985258;28;20501;-82
2022/09/19 13:08:23;;;;;;;1.08;0.40;;;;;;;;;;4984616;28;20042;-83
2022/09/19 13:10:54;;;;;;;1.45;0.50;;;;;;;;;;4963327;28;20038;-82
2022/09/19 13:13:22;;;;;;;0.50;0.30;;;;;;;;;;4963836;28;20034;-82
2022/09/19 13:15:54;;;;;;;0.82;0.40;;;;;;;;;;4986651;28;20045;-82
2022/09/19 13:24:15;;;;;;;1.55;0.55;;;;;;;;;;4992920;28;20523;-83
2022/09/19 13:26:40;;;;;;;0.85;0.40;;;;;;;;;;4986992;28;20078;-82
2022/09/19 13:29:29;;;;;;;1.13;0.43;;;;;;;;;;4969580;28;20065;-82
2022/09/19 13:31:59;;;;;;;0.50;0.30;;;;;;;;;;4987192;28;20162;-82
2022/09/19 13:34:38;;;;;;;1.48;0.30;;;;;;;;;;4988239;28;20038;-83
2022/09/19 13:37:26;;;;;;;1.50;0.30;;;;;;;;;;4985004;28;20478;-83
2022/09/19 13:40:13;;;;;;;0.75;0.30;;;;;;;;;;4985635;28;20065;-82
2022/09/19 13:42:43;;;;;;;;;;;;;;;;;;5006015;28;20556;-82
2022/09/19 13:45:30;;;;;;;1.42;0.40;;;;;;;;;;4975448;28;19956;-84
2022/09/19 13:48:02;;;;;;;1.00;0.38;;;;;;;;;;4991375;28;20045;-82
2022/09/19 13:50:49;;;;;;;1.73;0.60;;;;;;;;;;4990203;28;20052;-83
2022/09/19 13:53:40;;;;;;;2.10;0.88;;;;;;;;;;4980971;28;20046;-82
2022/09/19 13:56:24;;;;;;;1.27;0.60;;;;;;;;;;4986182;28;20359;-83
2022/09/19 13:59:17;;;;;;;0.80;0.40;;;;;;;;;;4989745;28;20923;-82
2022/09/19 14:01:53;;;;;;;1.48;0.50;;;;;;;;;;4975316;28;20070;-83
2022/09/19 14:07:07;;;;;;;1.08;0.50;;;;;;;;;;4992883;28;20133;-83
2022/09/19 14:09:41;;;;;;;1.33;0.52;;;;;;;;;;4989741;28;20038;-82
2022/09/19 14:12:49;;;;;;;1.52;0.50;;;;;;;;;;4976334;28;20460;-83
2022/09/19 14:15:29;;;;;;;1.88;0.60;;;;;;;;;;4985928;28;20156;-85
2022/09/19 14:18:10;;;;;;;2.10;0.68;;;;;;;;;;4982395;28;21054;-80
2022/09/19 14:20:54;;;;;;;1.95;0.68;;;;;;;;;;4991332;28;20042;-80
2022/09/19 14:23:21;;;;;;;1.35;0.60;;;;;;;;;;4983368;28;20038;-80
2022/09/19 14:26:01;;;;;;;1.45;0.60;;;;;;;;;;4974223;28;20113;-80
2022/09/19 14:28:42;;;;;;;1.05;0.52;;;;;;;;;;4978019;28;20037;-79
2022/09/19 14:31:07;;;;;;;1.60;0.50;;;;;;;;;;4981082;28;20041;-79
2022/09/19 14:33:58;;;;;;;1.95;0.80;;;;;;;;;;4982177;28;20125;-80
2022/09/19 14:36:37;;;;;;;1.83;0.70;;;;;;;;;;4972537;28;20410;-79
2022/09/19 14:39:21;;;;;;;1.92;0.80;;;;;;;;;;4973386;28;20041;-79
2022/09/19 14:42:02;;;;;;;1.85;0.65;;;;;;;;;;4989369;28;20120;-79
2022/09/19 14:45:10;;;;;;;1.75;0.70;;;;;;;;;;4997275;28;20061;-79
2022/09/19 14:47:45;;;;;;;2.00;0.77;;;;;;;;;;4941844;28;20057;-79
2022/09/19 14:50:21;;;;;;;1.17;0.60;;;;;;;;;;4982721;28;20044;-80
2022/09/19 14:53:00;;;;;;;2.33;1.10;;;;;;;;;;4974094;28;20034;-80
2022/09/19 14:55:41;;;;;;;1.63;0.70;;;;;;;;;;4973374;28;21195;-79
2022/09/19 14:58:28;;;;;;;1.40;0.70;;;;;;;;;;4974972;28;20044;-79
2022/09/19 15:01:00;;;;;;;1.35;0.70;;;;;;;;;;4966687;28;20037;-79
2022/09/19 15:03:26;;;;;;;2.50;0.80;;;;;;;;;;4975242;28;20033;-79
2022/09/19 15:05:51;;;;;;;2.42;0.73;;;;;;;;;;4977443;28;20045;-79
2022/09/19 15:08:29;;;;;;;2.40;0.60;;;;;;;;;;4974182;28;20041;-79
2022/09/19 15:11:04;;;;;;;1.88;0.57;;;;;;;;;;4974027;28;20481;-80
2022/09/19 15:13:30;;;;;;;2.67;0.60;;;;;;;;;;4987853;28;20473;-79
2022/09/19 15:16:03;;;;;;;1.23;0.50;;;;;;;;;;4974525;28;20430;-79
2022/09/19 15:18:35;;;;;;;1.42;0.50;;;;;;;;;;4978039;28;20405;-78
2022/09/19 15:21:02;;;;;;;2.13;0.70;;;;;;;;;;4972909;28;20121;-79
2022/09/19 15:23:28;;;;;;;;;;;;;;;;;;4975916;28;20033;-80
2022/09/19 15:26:02;;;;;;;0.90;0.47;;;;;;;;;;4975457;28;20301;-83
2022/09/19 15:28:37;;;;;;;1.88;0.50;;;;;;;;;;4980782;28;20124;-81
2022/09/19 15:31:16;;;;;;;2.33;0.77;;;;;;;;;;4973909;28;20030;-80
2022/09/19 15:33:42;;;;;;;2.03;0.63;;;;;;;;;;4982647;28;20045;-84
2022/09/19 15:36:13;;;;;;;2.45;0.90;;;;;;;;;;4989886;28;20381;-85
2022/09/19 15:38:39;;;;;;;2.13;0.50;;;;;;;;;;4972443;28;20053;-79
2022/09/19 15:41:07;;;;;;;1.83;0.52;;;;;;;;;;4990551;28;20033;-79
2022/09/19 15:43:33;;;;;;;;;;;;;;;;;;4987916;28;20393;-80
2022/09/19 15:46:01;;;;;;;1.83;0.60;;;;;;;;;;4975123;28;19940;-79